createdAt,value
2023-02-19T00:00:10.106Z,97063.22
2023-02-19T00:01:42.582Z,97057.44
2023-02-19T00:03:17.645Z,97051.97
2023-02-19T00:04:49.611Z,97051.50
2023-02-19T00:06:21.750Z,97049.94
2023-02-19T00:07:55.765Z,97046.31
2023-02-19T00:09:27.678Z,97060.09
2023-02-19T00:11:02.707Z,97047.56
2023-02-19T00:12:35.856Z,97042.75
2023-02-19T00:14:09.187Z,97048.03
2023-02-19T00:15:40.809Z,97042.72
2023-02-19T00:17:12.423Z,97038.34
2023-02-19T00:18:44.215Z,97045.22
2023-02-19T00:20:16.100Z,97041.78
2023-02-19T00:21:47.835Z,97040.06
2023-02-19T00:23:19.436Z,97038.53
2023-02-19T00:24:51.143Z,97036.50
2023-02-19T00:26:22.837Z,97032.41
2023-02-19T00:27:56.101Z,97036.50
2023-02-19T00:29:27.809Z,97046.81
2023-02-19T00:31:04.628Z,97049.63
2023-02-19T00:32:36.409Z,97046.66
2023-02-19T00:34:08.190Z,97050.25
2023-02-19T00:35:42.986Z,97029.47
2023-02-19T00:37:14.643Z,97038.84
2023-02-19T00:38:46.438Z,97036.50
2023-02-19T00:40:18.210Z,97037.44
2023-02-19T00:41:53.176Z,97044.31
2023-02-19T00:43:28.909Z,97039.94
2023-02-19T00:45:00.647Z,97040.56
2023-02-19T00:46:33.168Z,97039.00
2023-02-19T00:48:05.069Z,97041.81
2023-02-19T00:49:43.810Z,97037.91
2023-02-19T00:51:16.019Z,97030.72
2023-02-19T00:52:47.904Z,97039.00
2023-02-19T00:54:19.678Z,97034.00
2023-02-19T00:55:51.311Z,97045.88
2023-02-19T00:57:22.920Z,97039.63
2023-02-19T00:58:55.934Z,97037.44
2023-02-19T01:00:27.496Z,97036.03
2023-02-19T01:01:59.147Z,97042.91
2023-02-19T01:03:30.968Z,97038.53
2023-02-19T01:05:02.614Z,97038.53
2023-02-19T01:06:35.288Z,97033.66
2023-02-19T01:08:06.970Z,97035.41
2023-02-19T01:09:38.570Z,97044.63
2023-02-19T01:11:10.584Z,97045.56
2023-02-19T01:12:42.514Z,97039.00
2023-02-19T01:14:15.549Z,97039.47
2023-02-19T01:15:47.321Z,97043.84
2023-02-19T01:17:19.098Z,97043.69
2023-02-19T01:18:50.777Z,97036.03
2023-02-19T01:20:22.466Z,97036.66
2023-02-19T01:21:54.091Z,97038.69
2023-02-19T01:23:25.722Z,97034.00
2023-02-19T01:24:57.333Z,97031.34
2023-02-19T01:26:29.918Z,97035.72
2023-02-19T01:28:01.522Z,97034.16
2023-02-19T01:29:34.514Z,97033.06
2023-02-19T01:31:07.167Z,97025.09
2023-02-19T01:32:38.949Z,97032.28
2023-02-19T01:34:10.996Z,97031.47
2023-02-19T01:35:42.604Z,97029.44
2023-02-19T01:37:14.424Z,97027.75
2023-02-19T01:38:46.207Z,97026.03
2023-02-19T01:40:17.946Z,97030.09
2023-02-19T01:41:49.569Z,97026.66
2023-02-19T01:43:21.255Z,97027.44
2023-02-19T01:45:22.937Z,97032.28
2023-02-19T01:46:57.591Z,97026.66
2023-02-19T01:48:30.919Z,97014.16
2023-02-19T01:50:02.666Z,97019.00
2023-02-19T01:51:34.896Z,97012.72
2023-02-19T01:53:07.095Z,97005.56
2023-02-19T01:54:39.445Z,97003.38
2023-02-19T01:56:11.086Z,96991.63
2023-02-19T01:57:44.852Z,96985.06
2023-02-19T01:59:16.699Z,96989.28
2023-02-19T02:00:51.766Z,96988.31
2023-02-19T02:02:29.557Z,96984.56
2023-02-19T02:04:01.387Z,96980.97
2023-02-19T02:05:45.822Z,96972.53
2023-02-19T02:07:36.009Z,96970.03
2023-02-19T02:09:29.123Z,96964.88
2023-02-19T02:11:01.028Z,96975.38
2023-02-19T02:12:32.882Z,96966.28
2023-02-19T02:14:04.744Z,96980.06
2023-02-19T02:15:40.512Z,96986.94
2023-02-19T02:17:16.479Z,96987.25
2023-02-19T02:18:54.222Z,96994.59
2023-02-19T02:20:32.329Z,96991.94
2023-02-19T02:22:07.841Z,96990.22
2023-02-19T02:23:44.871Z,96988.97
2023-02-19T02:25:27.885Z,96988.50
2023-02-19T02:27:07.174Z,96973.00
2023-02-19T02:29:10.762Z,96973.63
2023-02-19T02:30:44.621Z,96976.75
2023-02-19T02:32:17.158Z,96973.31
2023-02-19T02:33:51.984Z,96959.56
2023-02-19T02:35:25.745Z,96965.06
2023-02-19T02:36:57.405Z,96962.22
2023-02-19T02:38:29.895Z,96960.34
2023-02-19T02:40:01.847Z,96956.13
2023-02-19T02:41:33.589Z,96949.09
2023-02-19T02:43:05.281Z,96962.25
2023-02-19T02:44:36.942Z,96966.75
2023-02-19T02:46:11.651Z,96965.50
2023-02-19T02:47:45.061Z,96978.81
2023-02-19T02:49:19.089Z,96967.69
2023-02-19T02:50:58.561Z,96964.41
2023-02-19T02:52:48.567Z,96952.53
2023-02-19T02:54:39.784Z,96959.44
2023-02-19T02:56:11.515Z,96962.88
2023-02-19T02:57:43.158Z,96963.97
2023-02-19T02:59:15.686Z,96959.91
2023-02-19T03:01:07.657Z,96950.38
2023-02-19T03:02:40.783Z,96953.66
2023-02-19T03:04:14.207Z,96959.28
2023-02-19T03:05:51.732Z,96960.38
2023-02-19T03:07:23.334Z,96960.19
2023-02-19T03:08:56.486Z,96967.06
2023-02-19T03:10:30.890Z,96971.44
2023-02-19T03:12:21.447Z,96966.13
2023-02-19T03:14:12.516Z,96971.28
2023-02-19T03:16:03.944Z,96969.91
2023-02-19T03:17:56.548Z,96967.84
2023-02-19T03:19:29.585Z,96970.03
2023-02-19T03:21:01.166Z,96972.09
2023-02-19T03:22:33.945Z,96965.06
2023-02-19T03:24:24.840Z,96958.47
2023-02-19T03:26:05.601Z,96959.09
2023-02-19T03:27:37.833Z,96953.91
2023-02-19T03:29:25.895Z,96943.28
2023-02-19T03:30:57.969Z,96942.50
2023-02-19T03:32:31.263Z,96937.81
2023-02-19T03:34:05.223Z,96953.13
2023-02-19T03:35:40.261Z,96958.78
2023-02-19T03:37:13.748Z,96959.88
2023-02-19T03:38:48.283Z,96966.94
2023-02-19T03:40:20.119Z,96965.53
2023-02-19T03:41:56.342Z,96972.41
2023-02-19T03:43:34.743Z,96979.13
2023-02-19T03:45:24.624Z,96982.09
2023-02-19T03:46:58.134Z,96984.28
2023-02-19T03:48:32.237Z,96981.94
2023-02-19T03:50:07.541Z,96980.38
2023-02-19T03:51:42.172Z,96979.59
2023-02-19T03:53:16.443Z,96970.84
2023-02-19T03:54:50.953Z,96964.44
2023-02-19T03:56:26.297Z,96963.81
2023-02-19T03:57:59.269Z,96951.63
2023-02-19T03:59:33.185Z,96942.38
2023-02-19T04:01:05.903Z,96948.63
2023-02-19T04:02:39.606Z,96944.09
2023-02-19T04:04:19.343Z,96937.84
2023-02-19T04:06:07.454Z,96928.16
2023-02-19T04:07:52.328Z,96922.69
2023-02-19T04:09:36.861Z,96940.06
2023-02-19T04:11:18.768Z,96930.53
2023-02-19T04:12:54.540Z,96924.09
2023-02-19T04:14:31.394Z,96925.53
2023-02-19T04:16:10.259Z,96933.81
2023-02-19T04:17:52.305Z,96950.53
2023-02-19T04:21:21.350Z,96947.56
2023-02-19T04:22:57.344Z,96934.09
2023-02-19T04:24:31.468Z,96931.75
2023-02-19T04:26:08.045Z,96935.97
2023-02-19T04:27:44.857Z,96949.56
2023-02-19T04:29:16.692Z,96946.28
2023-02-19T04:30:48.514Z,96934.25
2023-02-19T04:32:20.371Z,96930.66
2023-02-19T04:33:52.151Z,96938.00
2023-02-19T04:35:23.829Z,96948.78
2023-02-19T04:36:55.823Z,96948.94
2023-02-19T04:38:29.146Z,96960.81
2023-02-19T04:40:09.363Z,96955.19
2023-02-19T04:41:43.311Z,96947.09
2023-02-19T04:43:25.345Z,96953.31
2023-02-19T04:45:44.082Z,96958.94
2023-02-19T04:46:52.363Z,96971.59
2023-02-19T04:48:24.083Z,96974.72
2023-02-19T04:49:55.801Z,96966.28
2023-02-19T04:51:27.654Z,96968.78
2023-02-19T04:52:59.513Z,96971.31
2023-02-19T04:54:32.655Z,96973.78
2023-02-19T04:56:08.109Z,96969.88
2023-02-19T04:57:39.855Z,96973.97
2023-02-19T04:59:12.513Z,96981.00
2023-02-19T05:00:44.280Z,96990.06
2023-02-19T05:02:16.305Z,96989.44
2023-02-19T05:03:48.294Z,96994.91
2023-02-19T05:05:19.943Z,96993.50
2023-02-19T05:06:51.680Z,96995.84
2023-02-19T05:08:23.543Z,96998.66
2023-02-19T05:09:56.806Z,96994.75
2023-02-19T05:11:28.562Z,96992.72
2023-02-19T05:13:00.312Z,96990.38
2023-02-19T05:14:32.096Z,96982.09
2023-02-19T05:16:04.897Z,96983.97
2023-02-19T05:17:36.910Z,96985.53
2023-02-19T05:19:10.633Z,96980.22
2023-02-19T05:20:42.398Z,96986.78
2023-02-19T05:22:14.165Z,96989.44
2023-02-19T05:23:45.963Z,96989.59
2023-02-19T05:25:22.737Z,96995.53
2023-02-19T05:27:01.357Z,96989.91
2023-02-19T05:28:33.061Z,96996.94
2023-02-19T05:30:05.138Z,96982.25
2023-02-19T05:31:36.938Z,96985.84
2023-02-19T05:33:08.528Z,96992.56
2023-02-19T05:34:40.103Z,96991.16
2023-02-19T05:36:12.644Z,96997.88
2023-02-19T05:37:44.252Z,97000.06
2023-02-19T05:39:15.897Z,97006.31
2023-02-19T05:40:48.948Z,97007.25
2023-02-19T05:42:20.587Z,97010.69
2023-02-19T05:43:52.313Z,97014.28
2023-02-19T05:45:23.903Z,97016.66
2023-02-19T05:46:55.541Z,97011.94
2023-02-19T05:48:27.238Z,97011.78
2023-02-19T05:49:58.845Z,97015.69
2023-02-19T05:51:30.950Z,97022.75
2023-02-19T05:53:02.873Z,97029.47
2023-02-19T05:54:34.554Z,97023.84
2023-02-19T05:56:27.642Z,97023.38
2023-02-19T05:57:59.265Z,97023.22
2023-02-19T05:59:31.637Z,97030.41
2023-02-19T06:01:03.280Z,97028.38
2023-02-19T06:02:35.048Z,97034.94
2023-02-19T06:04:06.792Z,97032.44
2023-02-19T06:05:38.402Z,97040.56
2023-02-19T06:07:10.037Z,97037.44
2023-02-19T06:08:41.741Z,97033.53
2023-02-19T06:10:13.459Z,97041.03
2023-02-19T06:11:46.551Z,97038.38
2023-02-19T06:13:18.159Z,97042.13
2023-02-19T06:14:49.820Z,97030.69
2023-02-19T06:16:22.181Z,97045.41
2023-02-19T06:17:54.169Z,97038.84
2023-02-19T06:19:25.852Z,97042.59
2023-02-19T06:21:00.872Z,97037.59
2023-02-19T06:22:32.506Z,97041.97
2023-02-19T06:24:06.051Z,97038.69
2023-02-19T06:25:38.127Z,97045.41
2023-02-19T06:27:11.117Z,97044.63
2023-02-19T06:28:42.833Z,97043.69
2023-02-19T06:30:14.539Z,97047.44
2023-02-19T06:31:46.331Z,97044.31
2023-02-19T06:33:18.106Z,97040.56
2023-02-19T06:34:49.713Z,97046.81
2023-02-19T06:36:21.537Z,97047.91
2023-02-19T06:37:53.174Z,97047.91
2023-02-19T06:39:24.884Z,97045.88
2023-02-19T06:41:00.442Z,97058.69
2023-02-19T06:42:33.560Z,97059.00
2023-02-19T06:44:05.405Z,97052.44
2023-02-19T06:45:37.173Z,97051.97
2023-02-19T06:47:08.901Z,97058.69
2023-02-19T06:48:41.168Z,97064.47
2023-02-19T06:50:12.878Z,97051.31
2023-02-19T06:51:44.567Z,97059.28
2023-02-19T06:53:16.309Z,97054.28
2023-02-19T06:54:47.968Z,97055.53
2023-02-19T06:56:25.192Z,97057.72
2023-02-19T06:57:58.257Z,97057.56
2023-02-19T06:59:29.915Z,97065.53
2023-02-19T07:01:01.651Z,97082.72
2023-02-19T07:02:33.442Z,97079.91
2023-02-19T07:04:05.575Z,97090.38
2023-02-19T07:05:37.351Z,97088.03
2023-02-19T07:07:10.824Z,97096.31
2023-02-19T07:08:42.476Z,97103.84
2023-02-19T07:10:14.146Z,97100.69
2023-02-19T07:11:46.288Z,97110.25
2023-02-19T07:13:19.285Z,97107.59
2023-02-19T07:14:50.910Z,97112.59
2023-02-19T07:16:22.944Z,97103.53
2023-02-19T07:17:54.643Z,97108.19
2023-02-19T07:19:26.300Z,97107.72
2023-02-19T07:21:02.548Z,97118.69
2023-02-19T07:22:34.264Z,97121.34
2023-02-19T07:24:06.510Z,97122.59
2023-02-19T07:25:38.852Z,97130.44
2023-02-19T07:27:10.570Z,97136.03
2023-02-19T07:28:43.798Z,97130.25
2023-02-19T07:30:15.597Z,97131.22
2023-02-19T07:31:47.572Z,97133.75
2023-02-19T07:33:19.277Z,97131.88
2023-02-19T07:34:50.968Z,97130.78
2023-02-19T07:36:23.031Z,97138.44
2023-02-19T07:37:54.690Z,97136.72
2023-02-19T07:39:26.649Z,97143.28
2023-02-19T07:40:59.002Z,97154.69
2023-02-19T07:42:30.651Z,97157.34
2023-02-19T07:44:04.026Z,97159.09
2023-02-19T07:45:35.871Z,97155.97
2023-02-19T07:47:07.547Z,97159.09
2023-02-19T07:48:39.810Z,97170.69
2023-02-19T07:50:13.751Z,97157.09
2023-02-19T07:51:45.699Z,97165.88
2023-02-19T07:53:17.294Z,97158.66
2023-02-19T07:54:48.892Z,97161.16
2023-02-19T07:56:20.931Z,97167.72
2023-02-19T07:57:52.653Z,97171.50
2023-02-19T07:59:25.705Z,97168.66
2023-02-19T08:00:57.589Z,97167.88
2023-02-19T08:02:47.772Z,97174.16
2023-02-19T08:04:19.367Z,97165.53
2023-02-19T08:05:53.687Z,97166.19
2023-02-19T08:07:25.385Z,97162.88
2023-02-19T08:08:57.922Z,97164.00
2023-02-19T08:10:47.944Z,97161.97
2023-02-19T08:12:38.376Z,97163.38
2023-02-19T08:14:09.943Z,97172.91
2023-02-19T08:15:43.055Z,97177.34
2023-02-19T08:17:14.660Z,97178.56
2023-02-19T08:18:46.540Z,97172.63
2023-02-19T08:20:18.187Z,97172.63
2023-02-19T08:21:50.673Z,97178.13
2023-02-19T08:23:22.340Z,97173.09
2023-02-19T08:24:54.012Z,97178.09
2023-02-19T08:26:25.774Z,97181.25
2023-02-19T08:27:57.427Z,97184.69
2023-02-19T08:29:29.298Z,97184.38
2023-02-19T08:31:04.229Z,97188.75
2023-02-19T08:32:35.999Z,97180.59
2023-02-19T08:34:07.652Z,97190.81
2023-02-19T08:35:39.599Z,97195.50
2023-02-19T08:37:11.319Z,97195.81
2023-02-19T08:38:43.038Z,97208.66
2023-02-19T08:40:14.761Z,97199.72
2023-02-19T08:41:46.550Z,97198.78
2023-02-19T08:43:21.650Z,97200.50
2023-02-19T08:44:53.428Z,97201.59
2023-02-19T08:46:26.684Z,97196.56
2023-02-19T08:47:58.447Z,97198.47
2023-02-19T08:49:30.221Z,97196.44
2023-02-19T08:51:07.106Z,97203.16
2023-02-19T08:52:38.744Z,97204.41
2023-02-19T08:54:11.068Z,97215.19
2023-02-19T08:55:42.803Z,97207.38
2023-02-19T08:57:14.594Z,97205.81
2023-02-19T08:58:46.355Z,97214.91
2023-02-19T09:00:18.115Z,97225.03
2023-02-19T09:01:52.670Z,97216.28
2023-02-19T09:03:24.516Z,97218.63
2023-02-19T09:04:56.156Z,97210.50
2023-02-19T09:06:27.817Z,97219.72
2023-02-19T09:07:59.621Z,97220.81
2023-02-19T09:09:32.972Z,97214.91
2023-02-19T09:11:07.414Z,97216.00
2023-02-19T09:12:40.193Z,97213.97
2023-02-19T09:14:11.890Z,97215.53
2023-02-19T09:15:43.637Z,97207.84
2023-02-19T09:17:16.642Z,97210.19
2023-02-19T09:18:48.287Z,97197.81
2023-02-19T09:20:19.951Z,97206.41
2023-02-19T09:21:51.701Z,97206.28
2023-02-19T09:23:23.405Z,97209.25
2023-02-19T09:24:55.097Z,97213.31
2023-02-19T09:26:26.825Z,97213.63
2023-02-19T09:27:58.642Z,97211.75
2023-02-19T09:29:30.400Z,97220.22
2023-02-19T09:31:04.170Z,97216.28
2023-02-19T09:32:37.223Z,97222.56
2023-02-19T09:34:08.891Z,97234.78
2023-02-19T09:35:40.739Z,97223.16
2023-02-19T09:37:12.470Z,97221.94
2023-02-19T09:38:44.306Z,97229.47
2023-02-19T09:40:21.452Z,97228.34
2023-02-19T09:41:53.826Z,97229.94
2023-02-19T09:43:26.505Z,97225.84
2023-02-19T09:45:01.798Z,97229.94
2023-02-19T09:46:34.975Z,97228.84
2023-02-19T09:48:10.393Z,97227.13
2023-02-19T09:49:43.576Z,97235.75
2023-02-19T09:51:15.352Z,97234.03
2023-02-19T09:52:48.927Z,97222.28
2023-02-19T09:54:22.034Z,97229.78
2023-02-19T09:55:53.908Z,97229.16
2023-02-19T09:57:26.098Z,97231.97
2023-02-19T09:59:00.771Z,97234.00
2023-02-19T10:00:33.468Z,97236.53
2023-02-19T10:02:12.532Z,97235.56
2023-02-19T10:03:50.549Z,97231.34
2023-02-19T10:05:24.556Z,97239.19
2023-02-19T10:07:00.948Z,97244.34
2023-02-19T10:08:47.427Z,97240.56
2023-02-19T10:10:27.860Z,97238.56
2023-02-19T10:12:04.959Z,97235.25
2023-02-19T10:13:37.776Z,97235.09
2023-02-19T10:15:14.485Z,97238.38
2023-02-19T10:16:49.204Z,97246.06
2023-02-19T10:18:22.830Z,97233.69
2023-02-19T10:19:56.366Z,97236.19
2023-02-19T10:21:28.588Z,97234.63
2023-02-19T10:23:01.588Z,97243.09
2023-02-19T10:24:33.392Z,97240.56
2023-02-19T10:26:05.372Z,97237.75
2023-02-19T10:27:37.115Z,97242.16
2023-02-19T10:29:09.724Z,97249.03
2023-02-19T10:30:41.545Z,97244.34
2023-02-19T10:32:14.903Z,97251.06
2023-02-19T10:33:50.461Z,97250.75
2023-02-19T10:35:31.528Z,97250.88
2023-02-19T10:37:36.327Z,97242.28
2023-02-19T10:39:30.558Z,97254.97
2023-02-19T10:41:05.755Z,97256.69
2023-02-19T10:42:39.669Z,97257.75
2023-02-19T10:44:18.342Z,97256.69
2023-02-19T10:45:56.423Z,97262.13
2023-02-19T10:47:29.600Z,97259.63
2023-02-19T10:49:02.291Z,97257.44
2023-02-19T10:50:39.305Z,97257.44
2023-02-19T10:52:17.644Z,97260.75
2023-02-19T10:53:50.247Z,97256.84
2023-02-19T10:55:26.703Z,97256.06
2023-02-19T10:57:15.691Z,97254.97
2023-02-19T10:58:47.722Z,97262.50
2023-02-19T11:00:25.171Z,97262.94
2023-02-19T11:01:57.654Z,97261.38
2023-02-19T11:03:30.847Z,97255.13
2023-02-19T11:05:05.674Z,97260.28
2023-02-19T11:06:38.732Z,97267.31
2023-02-19T11:08:19.874Z,97264.66
2023-02-19T11:09:54.105Z,97264.06
2023-02-19T11:11:28.742Z,97259.31
2023-02-19T11:13:09.579Z,97249.06
2023-02-19T11:14:42.139Z,97248.47
2023-02-19T11:16:16.592Z,97246.09
2023-02-19T11:18:03.112Z,97246.41
2023-02-19T11:19:36.902Z,97247.47
2023-02-19T11:21:23.232Z,97246.25
2023-02-19T11:22:58.215Z,97241.34
2023-02-19T11:24:37.592Z,97243.06
2023-02-19T11:26:16.848Z,97231.88
2023-02-19T11:27:59.502Z,97217.91
2023-02-19T11:29:34.829Z,97221.94
2023-02-19T11:31:23.115Z,97219.19
2023-02-19T11:32:55.040Z,97217.13
2023-02-19T11:34:33.164Z,97228.47
2023-02-19T11:36:24.284Z,97215.56
2023-02-19T11:37:58.572Z,97213.53
2023-02-19T11:39:30.945Z,97203.28
2023-02-19T11:41:04.929Z,97196.88
2023-02-19T11:42:41.149Z,97197.03
2023-02-19T11:44:19.199Z,97197.31
2023-02-19T11:45:52.767Z,97211.28
2023-02-19T11:47:39.418Z,97201.38
2023-02-19T11:49:17.771Z,97206.31
2023-02-19T11:50:54.594Z,97186.44
2023-02-19T11:52:29.445Z,97190.00
2023-02-19T11:54:17.963Z,97186.09
2023-02-19T11:55:54.778Z,97187.22
2023-02-19T11:57:35.948Z,97179.44
2023-02-19T11:59:09.877Z,97186.19
2023-02-19T12:00:43.297Z,97195.25
2023-02-19T12:02:48.309Z,97202.34
2023-02-19T12:04:57.165Z,97198.25
2023-02-19T12:06:30.060Z,97197.34
2023-02-19T12:08:30.693Z,97195.00
2023-02-19T12:10:17.100Z,97193.28
2023-02-19T12:12:04.775Z,97191.66
2023-02-19T12:13:59.572Z,97192.50
2023-02-19T12:15:35.311Z,97185.63
2023-02-19T12:17:08.746Z,97181.88
2023-02-19T12:19:09.594Z,97210.16
2023-02-19T12:20:49.039Z,97190.63
2023-02-19T12:22:33.321Z,97191.00
2023-02-19T12:25:00.182Z,97203.25
2023-02-19T12:27:01.174Z,97191.91
2023-02-19T12:29:21.741Z,97188.78
2023-02-19T12:31:28.756Z,97192.03
2023-02-19T12:33:37.507Z,97188.81
2023-02-19T12:36:00.950Z,97194.13
2023-02-19T12:38:17.273Z,97199.66
2023-02-19T12:40:48.231Z,97191.41
2023-02-19T12:42:42.332Z,97193.78
2023-02-19T12:44:17.288Z,97201.06
2023-02-19T12:45:52.343Z,97197.28
2023-02-19T12:47:28.642Z,97205.81
2023-02-19T12:49:03.653Z,97210.59
2023-02-19T12:50:35.402Z,97211.41
2023-02-19T12:52:08.271Z,97226.94
2023-02-19T12:53:41.914Z,97228.59
2023-02-19T12:55:19.465Z,97234.25
2023-02-19T12:56:53.907Z,97238.88
2023-02-19T12:58:30.458Z,97239.06
2023-02-19T13:00:07.566Z,97241.09
2023-02-19T13:01:41.860Z,97234.03
2023-02-19T13:03:20.770Z,97240.56
2023-02-19T13:04:56.007Z,97236.06
2023-02-19T13:06:33.538Z,97237.38
2023-02-19T13:08:06.996Z,97231.16
2023-02-19T13:09:45.407Z,97221.00
2023-02-19T13:11:19.586Z,97232.81
2023-02-19T13:12:51.760Z,97223.13
2023-02-19T13:14:27.600Z,97227.41
2023-02-19T13:16:01.096Z,97240.00
2023-02-19T13:17:40.441Z,97232.78
2023-02-19T13:19:15.169Z,97235.22
2023-02-19T13:20:47.864Z,97229.44
2023-02-19T13:22:41.081Z,97233.22
2023-02-19T13:24:15.200Z,97237.13
2023-02-19T13:25:58.719Z,97228.25
2023-02-19T13:27:41.732Z,97228.06
2023-02-19T13:29:20.260Z,97225.59
2023-02-19T13:31:11.261Z,97224.53
2023-02-19T13:32:52.583Z,97224.41
2023-02-19T13:34:35.919Z,97230.44
2023-02-19T13:36:12.179Z,97217.31
2023-02-19T13:37:43.900Z,97220.63
2023-02-19T13:39:22.111Z,97212.50
2023-02-19T13:40:56.005Z,97217.72
2023-02-19T13:42:32.723Z,97200.88
2023-02-19T13:44:06.025Z,97209.06
2023-02-19T13:45:39.558Z,97203.59
2023-02-19T13:47:44.316Z,97212.03
2023-02-19T13:49:38.380Z,97214.59
2023-02-19T13:51:38.495Z,97207.41
2023-02-19T13:53:53.920Z,97210.72
2023-02-19T13:55:52.513Z,97207.81
2023-02-19T13:57:26.643Z,97205.91
2023-02-19T13:59:00.872Z,97209.88
2023-02-19T14:00:49.441Z,97215.16
2023-02-19T14:02:31.378Z,97210.41
2023-02-19T14:04:07.755Z,97208.09
2023-02-19T14:06:00.305Z,97217.69
2023-02-19T14:07:51.089Z,97234.25
2023-02-19T14:09:46.636Z,97224.31
2023-02-19T14:11:18.750Z,97212.84
2023-02-19T14:12:50.521Z,97214.72
2023-02-19T14:14:26.468Z,97204.47
2023-02-19T14:15:58.295Z,97207.47
2023-02-19T14:17:38.370Z,97221.09
2023-02-19T14:19:13.551Z,97222.69
2023-02-19T14:20:56.765Z,97224.34
2023-02-19T14:23:05.154Z,97202.41
2023-02-19T14:24:38.455Z,97204.94
2023-02-19T14:26:10.504Z,97205.72
2023-02-19T14:27:48.225Z,97208.28
2023-02-19T14:29:25.071Z,97213.88
2023-02-19T14:30:57.818Z,97215.44
2023-02-19T14:32:34.185Z,97212.38
2023-02-19T14:34:07.103Z,97210.50
2023-02-19T14:35:43.595Z,97209.09
2023-02-19T14:37:17.014Z,97211.09
2023-02-19T14:38:53.119Z,97196.50
2023-02-19T14:40:30.956Z,97196.25
2023-02-19T14:42:04.963Z,97197.94
2023-02-19T14:43:36.777Z,97191.16
2023-02-19T14:45:09.208Z,97197.63
2023-02-19T14:46:45.238Z,97197.41
2023-02-19T14:48:19.716Z,97200.66
2023-02-19T14:49:52.333Z,97198.94
2023-02-19T14:51:28.434Z,97205.09
2023-02-19T14:53:00.988Z,97199.97
2023-02-19T14:54:45.007Z,97211.25
2023-02-19T14:56:21.561Z,97206.97
2023-02-19T14:57:54.321Z,97200.28
2023-02-19T14:59:27.330Z,97189.81
2023-02-19T15:00:59.081Z,97202.22
2023-02-19T15:02:31.441Z,97205.34
2023-02-19T15:04:03.179Z,97208.97
2023-02-19T15:05:38.646Z,97208.38
2023-02-19T15:07:11.561Z,97215.81
2023-02-19T15:08:45.096Z,97215.63
2023-02-19T15:10:18.780Z,97214.84
2023-02-19T15:11:51.795Z,97220.69
2023-02-19T15:13:25.716Z,97223.81
2023-02-19T15:14:59.512Z,97229.22
2023-02-19T15:16:32.402Z,97225.56
2023-02-19T15:18:04.302Z,97228.56
2023-02-19T15:19:42.246Z,97240.41
2023-02-19T15:21:23.319Z,97245.75
2023-02-19T15:22:55.130Z,97249.47
2023-02-19T15:24:28.254Z,97247.19
2023-02-19T15:26:00.480Z,97248.47
2023-02-19T15:27:40.485Z,97244.56
2023-02-19T15:29:13.169Z,97247.81
2023-02-19T15:30:44.948Z,97244.38
2023-02-19T15:32:17.375Z,97247.94
2023-02-19T15:33:51.805Z,97244.91
2023-02-19T15:35:25.223Z,97241.84
2023-02-19T15:36:58.680Z,97243.41
2023-02-19T15:38:30.603Z,97247.19
2023-02-19T15:40:07.270Z,97239.75
2023-02-19T15:41:42.872Z,97248.28
2023-02-19T15:43:20.963Z,97243.78
2023-02-19T15:44:53.559Z,97243.28
2023-02-19T15:46:25.367Z,97244.38
2023-02-19T15:47:58.594Z,97250.88
2023-02-19T15:49:36.003Z,97252.47
2023-02-19T15:51:10.338Z,97257.81
2023-02-19T15:52:48.427Z,97263.28
2023-02-19T15:54:22.283Z,97258.47
2023-02-19T15:56:01.052Z,97266.50
2023-02-19T15:57:35.738Z,97251.59
2023-02-19T15:59:14.967Z,97262.53
2023-02-19T16:00:47.265Z,97270.53
2023-02-19T16:02:18.913Z,97263.34
2023-02-19T16:03:50.563Z,97268.03
2023-02-19T16:05:25.651Z,97263.19
2023-02-19T16:06:58.338Z,97265.38
2023-02-19T16:08:31.633Z,97260.66
2023-02-19T16:10:22.165Z,97265.84
2023-02-19T16:11:54.395Z,97265.72
2023-02-19T16:13:27.317Z,97261.97
2023-02-19T16:15:00.293Z,97260.25
2023-02-19T16:16:35.357Z,97264.03
2023-02-19T16:18:14.258Z,97266.72
2023-02-19T16:19:49.581Z,97266.41
2023-02-19T16:21:23.744Z,97269.06
2023-02-19T16:23:00.301Z,97274.56
2023-02-19T16:24:33.062Z,97285.06
2023-02-19T16:26:05.401Z,97289.75
2023-02-19T16:27:38.583Z,97288.94
2023-02-19T16:29:19.813Z,97290.69
2023-02-19T16:31:15.050Z,97290.53
2023-02-19T16:32:53.469Z,97289.91
2023-02-19T16:34:45.756Z,97295.06
2023-02-19T16:36:39.863Z,97289.44
2023-02-19T16:38:17.129Z,97283.31
2023-02-19T16:39:56.590Z,97283.63
2023-02-19T16:41:28.561Z,97273.63
2023-02-19T16:43:28.072Z,97285.84
2023-02-19T16:45:02.599Z,97292.25
2023-02-19T16:46:35.868Z,97295.88
2023-02-19T16:48:07.602Z,97304.03
2023-02-19T16:49:42.422Z,97302.94
2023-02-19T16:51:17.197Z,97304.34
2023-02-19T16:52:55.307Z,97311.06
2023-02-19T16:54:26.994Z,97317.66
2023-02-19T16:55:59.769Z,97326.59
2023-02-19T16:57:31.510Z,97326.59
2023-02-19T16:59:03.925Z,97336.44
2023-02-19T17:00:47.271Z,97335.34
2023-02-19T17:02:59.128Z,97338.66
2023-02-19T17:04:47.091Z,97331.91
2023-02-19T17:06:21.889Z,97336.31
2023-02-19T17:07:53.613Z,97341.31
2023-02-19T17:11:58.052Z,97342.56
2023-02-19T17:13:30.856Z,97343.34
2023-02-19T17:15:02.505Z,97345.06
2023-02-19T17:16:39.910Z,97343.97
2023-02-19T17:18:12.060Z,97346.50
2023-02-19T17:19:45.091Z,97338.97
2023-02-19T17:21:18.086Z,97333.81
2023-02-19T17:22:49.818Z,97330.81
2023-02-19T17:24:21.430Z,97330.66
2023-02-19T17:25:53.141Z,97334.91
2023-02-19T17:27:24.825Z,97336.78
2023-02-19T17:28:56.739Z,97334.44
2023-02-19T17:30:29.341Z,97339.59
2023-02-19T17:32:01.219Z,97344.13
2023-02-19T17:33:32.981Z,97341.31
2023-02-19T17:35:06.856Z,97331.78
2023-02-19T17:36:38.760Z,97335.34
2023-02-19T17:38:11.839Z,97336.75
2023-02-19T17:39:43.490Z,97346.94
2023-02-19T17:41:15.241Z,97345.84
2023-02-19T17:42:46.895Z,97353.34
2023-02-19T17:44:18.890Z,97352.56
2023-02-19T17:45:50.614Z,97359.63
2023-02-19T17:47:22.345Z,97363.22
2023-02-19T17:48:57.107Z,97359.63
2023-02-19T17:50:31.307Z,97359.31
2023-02-19T17:52:03.010Z,97357.91
2023-02-19T17:53:34.720Z,97355.38
2023-02-19T17:55:06.808Z,97350.69
2023-02-19T17:56:43.240Z,97352.72
2023-02-19T17:58:15.154Z,97347.72
2023-02-19T17:59:46.913Z,97347.56
2023-02-19T18:01:18.700Z,97346.16
2023-02-19T18:02:50.471Z,97353.66
2023-02-19T18:04:22.161Z,97358.53
2023-02-19T18:05:55.328Z,97362.59
2023-02-19T18:07:27.003Z,97359.78
2023-02-19T18:08:58.674Z,97358.34
2023-02-19T18:10:30.542Z,97360.69
2023-02-19T18:12:05.662Z,97366.66
2023-02-19T18:13:37.278Z,97376.69
2023-02-19T18:15:11.268Z,97368.00
2023-02-19T18:16:49.403Z,97386.34
2023-02-19T18:18:24.144Z,97384.28
2023-02-19T18:19:55.889Z,97389.44
2023-02-19T18:21:28.950Z,97392.69
2023-02-19T18:23:01.172Z,97389.88
2023-02-19T18:24:32.813Z,97394.09
2023-02-19T18:26:07.070Z,97403.34
2023-02-19T18:27:38.737Z,97406.19
2023-02-19T18:29:10.466Z,97409.94
2023-02-19T18:30:42.206Z,97411.31
2023-02-19T18:32:13.925Z,97415.75
2023-02-19T18:33:45.662Z,97424.03
2023-02-19T18:35:17.757Z,97421.06
2023-02-19T18:36:51.187Z,97429.38
2023-02-19T18:38:22.817Z,97432.81
2023-02-19T18:40:22.008Z,97430.94
2023-02-19T18:41:54.117Z,97423.06
2023-02-19T18:43:25.898Z,97427.78
2023-02-19T18:45:00.104Z,97426.41
2023-02-19T18:46:32.368Z,97420.75
2023-02-19T18:48:04.586Z,97421.38
2023-02-19T18:49:37.184Z,97426.03